Almont, Colorado
Current Conditions -  °F | °C
As of 4:55 AM on Friday 19 Dec 2014 (Local Time) from KGUC Reporting Station
Overcast Overcast  
Wind Chill:   Ceiling: 1400
Heat Index: 16°   Visibility: 10mi
Dew Point:   Wind: 9mph
Humidity: 73%   Direction: 10°N
Pressure: 30.2"   Gusts: NA
Location:  38.66°N, 106.85°W
Report Text: KGUC 191155Z AUTO 01008KT 10SM OVC014 M09/M13 A3020 RMK AO1 11080 21120 52007
Loading
Personal Weather Stations






























Interactive Weather Map New forecast layout! Learn more

10-Day Weather Forecast

Advertisements
Track Severe Weather on mobile